White Plains, Kentucky
Current Conditions -  °F | °C
As of 6:55 AM on Monday 20 Oct 2014 (Local Time) from K2I0 Reporting Station
Scattered Clouds Scattered Clouds  
Wind Chill: 50°   Ceiling: Unl
Heat Index: 50°   Visibility: 10mi
Dew Point: 49°   Wind: 5mph
Humidity: 97%   Direction: 210°SSW
Pressure: 30.05"   Gusts: NA
Location:  37.18°N, 87.38°W
Report Text: K2I0 201155Z AUTO 21004KT 10SM SCT110 10/10 A3005 RMK AO2 T01000095 10100 20066
Loading
Personal Weather Stations






























Interactive Weather Map
Tropical Storm Tracking
New forecast layout! Learn more

10-Day Weather Forecast

Advertisements
Track Severe Weather on mobile